Pagrindinis puslapis
METAR-TAF:

METAR-TAF

Oro uostai :

Šerifo al Idrisio oro uostas

Al Hoceima, Marokas

platuma: 35-11N, ilguma: 003-51W, Aukštis: 27 m

Dabartinis oras

Ataskaita buvo paskelbta 47 minutes, ne 16:00 UTC
Vėjas 2 kt iš Šiaurės Rytų
Temperatūra 17°C
Drėgmė 72%
Slėgis 1008 hPa
Matomumas: 8000 m
Išsisklaidę debesys ne aukštis 2600 ft
Apsiniaukę ne aukštis 8000 ft
lietus

METAR: GMTA 311600Z 04002KT 8000 -RA SCT026 OVC080 17/12 Q1008 NOSIG

Laikas: 17:47 (16:47 UTC)

Prognozė

Ataskaita buvo paskelbta 5 valandos ir 47 minutes, ne 11:00 UTC
Prognozė galioja nuo 31 metu 12 UTC su 01 metu 18 UTC
Vėjas 5 kt iš Šiaurės Rytų
Matomumas 10 km arba daugiau
Mažai debesys ne aukštis 2000 ft
Išsisklaidę debesys ne aukštis 2600 ft
Tikimybė 30% :
Laikinai
nuo 31 metu 12 UTC su 31 metu 24 UTC
Matomumas: 5000 m
lietus

TAF: GMTA 311100Z 3112/0118 04005KT 9999 FEW020 SCT026 PROB30 TEMPO 3112/3124 5000 -RA

Orai ataskaitas ir orų prognozės (METAR, TAF).

turimą stotys yra geltonos ir raudonos taškus žemėlapyje.

Perkelti pele per norėdami pamatyti stoties vardą.

Tada spustelėkite, norėdami matyti oro stebėjimo ir prognozės.

Norėdami pakeisti žemėlapį: spustelėkite ant žalios mygtukų su juodo kryžiaus žemyn,; žalią mygtuką su brūkšneliu, jei norite nutolinti; arba žalių rodyklių gretimoms žemėlapius.


METAR-TAF: